createdAt,value
2022-11-29T00:00:16.282Z,1.03
2022-11-29T00:05:19.404Z,0.70
2022-11-29T00:10:25.069Z,1.37
2022-11-29T00:15:28.193Z,0.70
2022-11-29T00:20:31.896Z,1.05
2022-11-29T00:25:35.011Z,1.50
2022-11-29T00:30:38.158Z,1.35
2022-11-29T00:35:44.110Z,1.30
2022-11-29T00:40:52.099Z,0.85
2022-11-29T00:45:55.217Z,0.88
2022-11-29T00:50:58.412Z,0.83
2022-11-29T00:56:03.369Z,1.40
2022-11-29T01:01:06.551Z,1.73
2022-11-29T01:06:13.149Z,0.90
2022-11-29T01:11:22.377Z,1.20
2022-11-29T01:16:25.950Z,0.93
2022-11-29T01:21:34.639Z,1.35
2022-11-29T01:26:37.745Z,0.80
2022-11-29T01:31:40.839Z,0.90
2022-11-29T01:36:43.998Z,1.10
2022-11-29T01:41:47.100Z,1.10
2022-11-29T01:46:50.218Z,0.88
2022-11-29T01:52:07.811Z,1.57
2022-11-29T01:57:13.536Z,1.27
2022-11-29T02:02:39.779Z,1.00
2022-11-29T02:07:46.402Z,0.90
2022-11-29T02:12:55.864Z,1.48
2022-11-29T02:18:10.808Z,1.20
2022-11-29T02:23:25.944Z,1.30
2022-11-29T02:28:48.838Z,1.00
2022-11-29T02:34:07.795Z,0.67
2022-11-29T02:39:38.899Z,1.17
2022-11-29T02:44:53.757Z,1.50
2022-11-29T02:50:35.747Z,1.20
2022-11-29T02:55:47.175Z,0.77
2022-11-29T03:01:16.885Z,1.00
2022-11-29T03:06:38.334Z,1.40
2022-11-29T03:12:11.600Z,0.97
2022-11-29T03:17:32.413Z,1.40
2022-11-29T03:22:43.379Z,0.80
2022-11-29T03:27:56.229Z,0.67
2022-11-29T03:33:35.160Z,0.90
2022-11-29T03:38:44.994Z,0.80
2022-11-29T03:43:56.906Z,1.15
2022-11-29T03:49:31.386Z,1.00
2022-11-29T03:55:10.244Z,1.00
2022-11-29T04:00:14.593Z,0.90
2022-11-29T04:05:20.797Z,1.57
2022-11-29T04:10:43.920Z,1.40
2022-11-29T04:16:24.086Z,1.58
2022-11-29T04:21:42.798Z,1.20
2022-11-29T04:27:01.218Z,1.00
2022-11-29T04:32:16.171Z,2.17
2022-11-29T04:37:49.774Z,1.92
2022-11-29T04:43:01.742Z,1.27
2022-11-29T04:48:15.057Z,4.07
2022-11-29T04:54:03.279Z,1.35
2022-11-29T04:59:19.752Z,1.57
2022-11-29T05:04:47.239Z,1.70
2022-11-29T05:10:01.336Z,1.45
2022-11-29T05:15:22.943Z,1.27
2022-11-29T05:21:03.462Z,1.52
2022-11-29T05:26:09.949Z,1.27
2022-11-29T05:31:25.733Z,0.77
2022-11-29T05:36:59.479Z,1.23
2022-11-29T05:42:05.824Z,0.80
2022-11-29T05:47:16.397Z,1.63
2022-11-29T05:52:44.655Z,1.50
2022-11-29T05:57:57.871Z,1.48
2022-11-29T06:03:27.889Z,1.02
2022-11-29T06:08:55.194Z,0.87
2022-11-29T06:14:17.613Z,0.60
2022-11-29T06:19:32.787Z,1.80
2022-11-29T06:24:48.102Z,1.15
2022-11-29T06:30:13.868Z,0.98
2022-11-29T06:35:46.089Z,1.97
2022-11-29T06:40:50.876Z,1.45
2022-11-29T06:46:24.271Z,0.90
2022-11-29T06:52:17.967Z,1.13
2022-11-29T06:57:26.948Z,1.45
2022-11-29T07:02:56.464Z,1.50
2022-11-29T07:08:26.568Z,1.90
2022-11-29T07:13:29.965Z,2.20
2022-11-29T07:18:33.094Z,2.30
2022-11-29T07:23:39.600Z,2.50
2022-11-29T07:29:02.421Z,2.30
2022-11-29T07:34:46.508Z,2.20
2022-11-29T07:40:02.077Z,2.00
2022-11-29T07:45:28.957Z,2.35
2022-11-29T07:50:32.506Z,2.45
2022-11-29T07:55:37.280Z,1.70
2022-11-29T08:00:43.206Z,1.85
2022-11-29T08:05:48.096Z,2.20
2022-11-29T08:10:51.287Z,1.80
2022-11-29T08:15:54.397Z,2.25
2022-11-29T08:20:57.590Z,2.33
2022-11-29T08:26:02.787Z,2.70
2022-11-29T08:31:10.046Z,1.77
2022-11-29T08:41:52.961Z,4.70
2022-11-29T08:47:14.622Z,2.73
2022-11-29T08:52:36.005Z,3.60
2022-11-29T08:57:40.855Z,2.50
2022-11-29T09:02:45.232Z,2.70
2022-11-29T09:07:48.913Z,2.70
2022-11-29T09:12:55.535Z,2.53
2022-11-29T09:17:58.734Z,2.55
2022-11-29T09:23:02.446Z,2.27
2022-11-29T09:28:06.076Z,2.63
2022-11-29T09:33:09.282Z,1.98
2022-11-29T09:38:15.510Z,2.07
2022-11-29T09:43:30.096Z,1.58
2022-11-29T09:49:10.805Z,1.77
2022-11-29T09:54:23.421Z,2.20
2022-11-29T09:59:41.355Z,3.38
2022-11-29T10:04:54.026Z,2.00
2022-11-29T10:10:03.792Z,1.70
2022-11-29T10:15:20.195Z,2.10
2022-11-29T10:20:26.835Z,1.95
2022-11-29T10:25:42.726Z,1.92
2022-11-29T10:30:47.488Z,1.20
2022-11-29T10:35:55.989Z,1.75
2022-11-29T10:41:12.587Z,1.50
2022-11-29T10:46:32.912Z,1.02
2022-11-29T10:51:57.481Z,1.30
2022-11-29T10:57:02.247Z,0.77
2022-11-29T11:02:19.893Z,1.50
2022-11-29T11:07:31.946Z,1.40
2022-11-29T11:12:38.835Z,1.60
2022-11-29T11:18:00.829Z,1.30
2022-11-29T11:23:08.662Z,1.47
2022-11-29T11:28:24.841Z,2.25
2022-11-29T11:33:49.603Z,1.27
2022-11-29T11:38:59.764Z,1.27
2022-11-29T11:44:26.306Z,1.50
2022-11-29T11:50:09.946Z,0.80
2022-11-29T11:55:22.513Z,0.93
2022-11-29T12:01:03.433Z,1.17
2022-11-29T12:06:28.113Z,0.93
2022-11-29T12:11:42.518Z,2.25
2022-11-29T12:16:50.698Z,1.47
2022-11-29T12:22:03.062Z,1.90
2022-11-29T12:27:27.654Z,2.00
2022-11-29T12:32:33.619Z,1.77
2022-11-29T12:37:43.298Z,2.03
2022-11-29T12:43:05.149Z,2.30
2022-11-29T12:48:28.802Z,2.17
2022-11-29T12:54:04.490Z,1.87
2022-11-29T12:59:35.430Z,2.20
2022-11-29T13:04:59.927Z,3.78
2022-11-29T13:10:46.152Z,2.80
2022-11-29T13:16:02.081Z,2.95
2022-11-29T13:21:11.908Z,3.03
2022-11-29T13:26:17.363Z,2.30
2022-11-29T13:31:23.793Z,1.77
2022-11-29T13:36:58.221Z,2.27
2022-11-29T13:42:16.772Z,2.00
2022-11-29T13:47:21.546Z,1.47
2022-11-29T13:52:43.422Z,1.30
2022-11-29T14:03:24.360Z,1.73
2022-11-29T14:14:16.952Z,1.17
2022-11-29T14:19:26.738Z,1.10
2022-11-29T14:24:36.140Z,0.93
2022-11-29T14:29:51.081Z,0.97
2022-11-29T14:35:10.268Z,1.00
2022-11-29T14:40:20.590Z,1.57
2022-11-29T14:45:30.911Z,2.15
2022-11-29T14:50:40.275Z,1.33
2022-11-29T14:56:30.622Z,1.57
2022-11-29T15:01:10.735Z,1.83
2022-11-29T15:06:24.381Z,3.33
2022-11-29T15:11:53.079Z,2.35
2022-11-29T15:17:03.904Z,2.10
2022-11-29T15:22:18.624Z,1.47
2022-11-29T15:27:23.171Z,1.30
2022-11-29T15:32:32.844Z,2.30
2022-11-29T15:37:36.792Z,1.85
2022-11-29T15:42:50.238Z,1.23
2022-11-29T15:47:54.486Z,1.90
2022-11-29T15:53:04.216Z,1.40
2022-11-29T15:58:12.020Z,0.63
2022-11-29T16:03:43.940Z,1.70
2022-11-29T16:08:48.709Z,1.02
2022-11-29T16:14:13.593Z,1.87
2022-11-29T16:19:29.168Z,1.70
2022-11-29T16:24:36.223Z,1.47
2022-11-29T16:29:45.376Z,1.58
2022-11-29T16:34:48.834Z,2.10
2022-11-29T16:39:57.079Z,1.30
2022-11-29T16:45:36.954Z,1.42
2022-11-29T16:50:40.294Z,1.50
2022-11-29T16:55:43.485Z,0.70
2022-11-29T17:00:46.774Z,1.33
2022-11-29T17:05:50.448Z,0.93
2022-11-29T17:10:53.645Z,0.88
2022-11-29T17:15:56.951Z,1.00
2022-11-29T17:21:00.733Z,0.85
2022-11-29T17:26:04.038Z,0.68
2022-11-29T17:31:11.223Z,1.13
2022-11-29T17:36:18.029Z,0.55
2022-11-29T17:41:23.655Z,1.03
2022-11-29T17:46:29.491Z,1.00
2022-11-29T17:56:56.420Z,1.20
2022-11-29T18:01:59.642Z,1.15
2022-11-29T18:07:03.035Z,1.00
2022-11-29T18:12:06.359Z,0.82
2022-11-29T18:17:13.135Z,0.80
2022-11-29T18:22:16.372Z,1.00
2022-11-29T18:27:19.644Z,0.82
2022-11-29T18:32:22.807Z,0.90
2022-11-29T18:37:54.498Z,0.80
2022-11-29T18:42:51.303Z,0.98
2022-11-29T18:47:54.674Z,1.00
2022-11-29T18:52:59.107Z,0.88
2022-11-29T18:58:02.345Z,0.90
2022-11-29T19:03:05.442Z,0.95
2022-11-29T19:08:08.526Z,1.33
2022-11-29T19:13:11.688Z,0.90
2022-11-29T19:18:14.901Z,0.95
2022-11-29T19:23:21.645Z,0.80
2022-11-29T19:28:24.839Z,0.93
2022-11-29T19:33:31.068Z,1.27
2022-11-29T19:38:38.132Z,1.50
2022-11-29T19:43:41.269Z,1.25
2022-11-29T19:48:44.994Z,1.10
2022-11-29T19:53:48.675Z,1.45
2022-11-29T19:58:52.801Z,1.63
2022-11-29T20:03:59.587Z,0.60
2022-11-29T20:09:02.789Z,0.70
2022-11-29T20:14:08.164Z,0.70
2022-11-29T20:19:13.833Z,0.85
2022-11-29T20:24:17.657Z,1.17
2022-11-29T20:29:22.112Z,1.00
2022-11-29T20:34:25.565Z,1.27
2022-11-29T20:39:35.192Z,0.97
2022-11-29T20:44:54.154Z,0.90
2022-11-29T20:49:57.953Z,0.75
2022-11-29T20:55:01.151Z,1.00
2022-11-29T21:00:11.489Z,1.38
2022-11-29T21:05:16.531Z,0.70
2022-11-29T21:17:33.364Z,1.10
2022-11-29T21:23:24.138Z,0.90
2022-11-29T21:29:06.030Z,1.33
2022-11-29T21:34:09.240Z,0.67
2022-11-29T21:39:15.756Z,1.08
2022-11-29T21:44:18.841Z,0.47
2022-11-29T21:49:21.956Z,0.87
2022-11-29T21:54:25.053Z,0.65
2022-11-29T21:59:28.384Z,0.77
2022-11-29T22:04:31.496Z,1.50
2022-11-29T22:09:34.645Z,0.73
2022-11-29T22:14:37.762Z,1.10
2022-11-29T22:19:41.175Z,0.77
2022-11-29T22:24:44.430Z,1.00
2022-11-29T22:29:49.137Z,1.60
2022-11-29T22:34:55.047Z,1.33
2022-11-29T22:39:58.118Z,1.40
2022-11-29T22:45:02.445Z,0.77
2022-11-29T22:50:11.308Z,1.10
2022-11-29T22:55:14.434Z,1.20
2022-11-29T23:00:17.679Z,0.75
2022-11-29T23:05:20.840Z,0.40
2022-11-29T23:10:24.831Z,0.95
2022-11-29T23:15:27.934Z,1.07
2022-11-29T23:20:31.082Z,0.85
2022-11-29T23:25:34.173Z,0.82
2022-11-29T23:30:37.208Z,0.87
2022-11-29T23:35:40.345Z,0.63
2022-11-29T23:40:46.974Z,0.63
2022-11-29T23:45:50.407Z,0.75
2022-11-29T23:50:53.551Z,1.20
2022-11-29T23:56:01.614Z,0.97
